createdAt,value
2018-10-03T00:00:49.938Z,0
2018-10-03T00:01:51.003Z,0
2018-10-03T00:02:52.342Z,0
2018-10-03T00:03:52.581Z,0
2018-10-03T00:04:53.636Z,0
2018-10-03T00:05:54.422Z,0
2018-10-03T00:06:55.788Z,0
2018-10-03T00:07:56.029Z,0
2018-10-03T00:08:58.363Z,0
2018-10-03T00:09:59.151Z,0
2018-10-03T00:10:59.656Z,0
2018-10-03T00:12:00.717Z,0
2018-10-03T00:13:01.779Z,0
2018-10-03T00:14:02.284Z,0
2018-10-03T00:15:02.797Z,0
2018-10-03T00:16:03.302Z,0
2018-10-03T00:17:04.087Z,0
2018-10-03T00:18:04.046Z,0
2018-10-03T00:19:04.828Z,0
2018-10-03T00:20:05.341Z,0
2018-10-03T00:21:06.121Z,0
2018-10-03T00:22:07.630Z,0
2018-10-03T00:23:08.710Z,0
2018-10-03T00:24:10.607Z,0
2018-10-03T00:25:10.117Z,0
2018-10-03T00:26:10.901Z,0
2018-10-03T00:27:11.973Z,0
2018-10-03T00:28:13.482Z,0
2018-10-03T00:29:13.546Z,0
2018-10-03T00:30:14.338Z,0
2018-10-03T00:31:15.404Z,0
2018-10-03T00:32:16.190Z,0
2018-10-03T00:33:16.418Z,0
2018-10-03T00:34:17.926Z,0
2018-10-03T00:35:18.710Z,0
2018-10-03T00:36:19.503Z,0
2018-10-03T00:37:21.130Z,0
2018-10-03T00:38:21.215Z,0
2018-10-03T00:39:22.724Z,0
2018-10-03T00:40:24.787Z,0
2018-10-03T00:41:25.297Z,0
2018-10-03T00:42:26.083Z,0
2018-10-03T00:43:26.866Z,0
2018-10-03T00:44:27.376Z,0
2018-10-03T00:45:28.716Z,0
2018-10-03T00:46:29.222Z,0
2018-10-03T00:47:30.561Z,0
2018-10-03T00:48:31.093Z,0
2018-10-03T00:49:31.165Z,0
2018-10-03T00:50:33.079Z,0
2018-10-03T00:51:33.701Z,0
2018-10-03T00:52:34.213Z,0
2018-10-03T00:53:35.839Z,0
2018-10-03T00:54:35.628Z,0
2018-10-03T00:55:36.693Z,0
2018-10-03T00:56:37.484Z,0
2018-10-03T00:57:37.830Z,0
2018-10-03T00:58:39.350Z,0
2018-10-03T00:59:40.416Z,0
2018-10-03T01:00:40.648Z,0
2018-10-03T01:01:42.440Z,0
2018-10-03T01:02:43.226Z,0
2018-10-03T01:03:43.738Z,0
2018-10-03T01:04:45.807Z,0
2018-10-03T01:05:45.880Z,0
2018-10-03T01:06:46.952Z,0
2018-10-03T01:07:47.356Z,0
2018-10-03T01:08:47.259Z,0
2018-10-03T01:09:48.372Z,0
2018-10-03T01:10:49.894Z,0
2018-10-03T01:11:50.687Z,0
2018-10-03T01:12:52.093Z,0
2018-10-03T01:13:53.160Z,0
2018-10-03T01:14:53.397Z,0
2018-10-03T01:15:54.186Z,0
2018-10-03T01:16:55.251Z,0
2018-10-03T01:17:56.320Z,0
2018-10-03T01:18:57.279Z,0
2018-10-03T01:19:58.349Z,0
2018-10-03T01:20:59.411Z,0
2018-10-03T01:21:59.645Z,0
2018-10-03T01:23:01.431Z,0
2018-10-03T01:24:02.252Z,0
2018-10-03T01:25:03.285Z,0
2018-10-03T01:26:03.077Z,0
2018-10-03T01:27:04.865Z,0
2018-10-03T01:28:05.101Z,0
2018-10-03T01:29:06.343Z,0
2018-10-03T01:30:07.410Z,0
2018-10-03T01:31:08.474Z,0
2018-10-03T01:32:09.820Z,0
2018-10-03T01:33:10.331Z,0
2018-10-03T01:34:10.844Z,0
2018-10-03T01:35:11.632Z,0
2018-10-03T01:36:12.715Z,0
2018-10-03T01:37:13.225Z,0
2018-10-03T01:38:14.433Z,0
2018-10-03T01:39:14.967Z,0
2018-10-03T01:40:16.867Z,0
2018-10-03T01:41:16.101Z,0
2018-10-03T01:42:17.889Z,0
2018-10-03T01:43:19.790Z,0
2018-10-03T01:44:19.862Z,0
2018-10-03T01:45:20.926Z,0
2018-10-03T01:46:21.712Z,0
2018-10-03T01:47:22.781Z,0
2018-10-03T01:48:23.903Z,0
2018-10-03T01:49:24.698Z,0
2018-10-03T01:50:25.763Z,0
2018-10-03T01:51:26.557Z,0
2018-10-03T01:52:27.624Z,0
2018-10-03T01:53:28.692Z,0
2018-10-03T01:54:29.205Z,0
2018-10-03T01:55:29.439Z,0
2018-10-03T01:56:30.507Z,0
2018-10-03T01:57:31.301Z,0
2018-10-03T01:58:32.092Z,0
2018-10-03T01:59:33.191Z,0
2018-10-03T02:00:33.983Z,0
2018-10-03T02:01:35.328Z,0
2018-10-03T02:02:36.117Z,0
2018-10-03T02:03:36.905Z,0
2018-10-03T02:04:37.699Z,0
2018-10-03T02:05:38.765Z,0
2018-10-03T02:06:40.109Z,0
2018-10-03T02:07:40.621Z,0
2018-10-03T02:08:41.686Z,0
2018-10-03T02:09:42.483Z,0
2018-10-03T02:10:43.271Z,0
2018-10-03T02:11:44.614Z,0
2018-10-03T02:12:44.678Z,0
2018-10-03T02:13:44.913Z,0
2018-10-03T02:14:47.708Z,0
2018-10-03T02:15:47.757Z,0
2018-10-03T02:16:49.105Z,0
2018-10-03T02:17:49.449Z,0
2018-10-03T02:18:49.961Z,0
2018-10-03T02:19:51.231Z,0
2018-10-03T02:20:52.022Z,0
2018-10-03T02:21:52.534Z,0
2018-10-03T02:22:54.322Z,0
2018-10-03T02:23:55.387Z,0
2018-10-03T02:24:56.727Z,0
2018-10-03T02:25:57.241Z,0
2018-10-03T02:26:59.033Z,0
2018-10-03T02:28:00.374Z,0
2018-10-03T02:29:00.889Z,0
2018-10-03T02:30:03.009Z,0
2018-10-03T02:31:03.642Z,0
2018-10-03T02:32:05.006Z,0
2018-10-03T02:33:05.629Z,0
2018-10-03T02:34:06.979Z,0
2018-10-03T02:35:07.881Z,0
2018-10-03T02:36:08.798Z,0
2018-10-03T02:37:09.148Z,0
2018-10-03T02:38:09.492Z,0
2018-10-03T02:39:10.283Z,0
2018-10-03T02:40:11.130Z,0
2018-10-03T02:41:11.925Z,0
2018-10-03T02:42:13.835Z,0
2018-10-03T02:43:14.185Z,0
2018-10-03T02:44:15.249Z,0
2018-10-03T02:45:15.604Z,0
2018-10-03T02:46:17.230Z,0
2018-10-03T02:47:18.410Z,0
2018-10-03T02:48:18.766Z,0
2018-10-03T02:49:19.109Z,0
2018-10-03T02:50:19.628Z,0
2018-10-03T02:51:21.999Z,0
2018-10-03T02:52:23.620Z,0
2018-10-03T02:53:24.536Z,0
2018-10-03T02:54:24.054Z,0
2018-10-03T02:55:25.962Z,0
2018-10-03T02:56:26.584Z,0
2018-10-03T02:57:28.255Z,0
2018-10-03T02:58:28.335Z,0
2018-10-03T02:59:29.676Z,0
2018-10-03T03:00:31.061Z,0
2018-10-03T03:01:31.645Z,0
2018-10-03T03:02:32.317Z,0
2018-10-03T03:03:32.663Z,0
2018-10-03T03:04:33.014Z,0
2018-10-03T03:05:35.198Z,0
2018-10-03T03:06:34.428Z,0
2018-10-03T03:07:36.227Z,0
2018-10-03T03:08:38.198Z,0
2018-10-03T03:09:38.200Z,0
2018-10-03T03:10:39.008Z,0
2018-10-03T03:11:38.522Z,0
2018-10-03T03:12:40.651Z,0
2018-10-03T03:13:41.833Z,0
2018-10-03T03:14:42.197Z,0
2018-10-03T03:15:42.837Z,0
2018-10-03T03:16:43.468Z,0
2018-10-03T03:17:44.813Z,0
2018-10-03T03:18:44.342Z,0
2018-10-03T03:19:46.243Z,0
2018-10-03T03:20:47.039Z,0
2018-10-03T03:21:48.679Z,0
2018-10-03T03:22:49.030Z,0
2018-10-03T03:23:50.397Z,0
2018-10-03T03:24:51.165Z,0
2018-10-03T03:25:52.784Z,0
2018-10-03T03:26:53.413Z,0
2018-10-03T03:27:54.037Z,0
2018-10-03T03:28:54.108Z,0
2018-10-03T03:29:54.625Z,0
2018-10-03T03:30:56.317Z,0
2018-10-03T03:31:57.949Z,0
2018-10-03T03:32:58.628Z,0
2018-10-03T03:33:58.700Z,0
2018-10-03T03:34:59.487Z,0
2018-10-03T03:36:00.554Z,0
2018-10-03T03:37:02.181Z,0
2018-10-03T03:38:02.527Z,0
2018-10-03T03:39:02.886Z,0
2018-10-03T03:40:03.260Z,0
2018-10-03T03:41:04.332Z,0
2018-10-03T03:42:05.675Z,0
2018-10-03T03:43:07.018Z,0
2018-10-03T03:44:07.365Z,0
2018-10-03T03:45:07.708Z,0
2018-10-03T03:46:09.053Z,0
2018-10-03T03:47:08.845Z,0
2018-10-03T03:48:10.190Z,0
2018-10-03T03:49:10.541Z,0
2018-10-03T03:50:10.883Z,0
2018-10-03T03:51:11.273Z,0
2018-10-03T03:52:12.335Z,0
2018-10-03T03:53:13.122Z,0
2018-10-03T03:54:14.751Z,0
2018-10-03T03:55:14.819Z,0
2018-10-03T03:56:15.895Z,0
2018-10-03T03:57:17.552Z,0
2018-10-03T03:58:18.068Z,0
2018-10-03T03:59:18.853Z,0
2018-10-03T04:00:19.643Z,0
2018-10-03T04:01:04.424Z,0
2018-10-03T04:02:05.948Z,0
2018-10-03T04:03:06.295Z,0
2018-10-03T04:04:06.641Z,0
2018-10-03T04:05:06.988Z,0
2018-10-03T04:06:08.060Z,0
2018-10-03T04:07:08.406Z,0
2018-10-03T04:08:09.752Z,0
2018-10-03T04:09:09.543Z,0
2018-10-03T04:10:11.443Z,0
2018-10-03T04:11:12.631Z,0
2018-10-03T04:12:13.282Z,0
2018-10-03T04:13:13.902Z,0
2018-10-03T04:14:13.968Z,0
2018-10-03T04:15:15.318Z,0
2018-10-03T04:16:15.935Z,0
2018-10-03T04:17:17.283Z,0
2018-10-03T04:18:17.791Z,0
2018-10-03T04:19:19.025Z,0
2018-10-03T04:20:20.533Z,0
2018-10-03T04:21:21.877Z,0
2018-10-03T04:22:21.972Z,0
2018-10-03T04:23:23.329Z,0
2018-10-03T04:24:23.839Z,0
2018-10-03T04:25:24.910Z,0
2018-10-03T04:26:24.978Z,0
2018-10-03T04:27:26.043Z,0
2018-10-03T04:28:27.107Z,0
2018-10-03T04:29:27.900Z,0
2018-10-03T04:30:28.958Z,0
2018-10-03T04:31:29.747Z,0
2018-10-03T04:32:31.264Z,0
2018-10-03T04:33:31.771Z,0
2018-10-03T04:34:32.283Z,0
2018-10-03T04:35:34.999Z,0
2018-10-03T04:36:35.034Z,0
2018-10-03T04:37:35.542Z,0
2018-10-03T04:38:36.891Z,0
2018-10-03T04:39:36.402Z,0
2018-10-03T04:40:37.635Z,0
2018-10-03T04:41:38.148Z,0
2018-10-03T04:42:39.444Z,0
2018-10-03T04:43:38.958Z,0
2018-10-03T04:44:40.751Z,0
2018-10-03T04:45:41.254Z,0
2018-10-03T04:46:42.043Z,0
2018-10-03T04:47:43.386Z,0
2018-10-03T04:48:44.733Z,0
2018-10-03T04:49:45.801Z,0
2018-10-03T04:50:46.586Z,0
2018-10-03T04:51:47.375Z,0
2018-10-03T04:52:48.062Z,0
2018-10-03T04:53:51.005Z,0
2018-10-03T04:54:51.073Z,0
2018-10-03T04:55:51.867Z,0
2018-10-03T04:56:52.926Z,0
2018-10-03T04:57:53.991Z,0
2018-10-03T04:58:53.781Z,0
2018-10-03T04:59:54.848Z,0
2018-10-03T05:00:55.916Z,0
2018-10-03T05:01:56.705Z,0
2018-10-03T05:02:58.223Z,0
2018-10-03T05:03:59.014Z,0
2018-10-03T05:04:59.804Z,0
2018-10-03T05:06:01.148Z,0
2018-10-03T05:07:02.317Z,0
2018-10-03T05:08:02.444Z,0
2018-10-03T05:09:03.510Z,0
2018-10-03T05:10:04.024Z,0
2018-10-03T05:11:04.808Z,0
2018-10-03T05:12:05.892Z,0
2018-10-03T05:13:07.137Z,0
2018-10-03T05:14:08.209Z,0
2018-10-03T05:15:08.726Z,0
2018-10-03T05:16:09.518Z,0
2018-10-03T05:17:10.328Z,0
2018-10-03T05:18:13.225Z,0
2018-10-03T05:19:12.738Z,0
2018-10-03T05:20:14.530Z,0
2018-10-03T05:21:15.594Z,0
2018-10-03T05:22:16.107Z,0
2018-10-03T05:23:17.353Z,0
2018-10-03T05:24:18.702Z,0
2018-10-03T05:25:19.325Z,0
2018-10-03T05:26:19.391Z,0
2018-10-03T05:27:20.736Z,0
2018-10-03T05:28:21.532Z,0
2018-10-03T05:29:21.323Z,5.63
2018-10-03T05:30:22.556Z,5.63
2018-10-03T05:31:24.626Z,5.63
2018-10-03T05:32:25.417Z,5.63
2018-10-03T05:33:27.614Z,5.63
2018-10-03T05:34:26.789Z,5.63
2018-10-03T05:35:28.137Z,5.63
2018-10-03T05:36:28.928Z,5.63
2018-10-03T05:37:29.722Z,5.63
2018-10-03T05:38:30.784Z,11.25
2018-10-03T05:39:32.028Z,11.25
2018-10-03T05:40:33.102Z,11.25
2018-10-03T05:41:34.730Z,11.25
2018-10-03T05:42:34.253Z,11.25
2018-10-03T05:43:36.051Z,11.25
2018-10-03T05:44:36.411Z,16.88
2018-10-03T05:45:36.203Z,16.88
2018-10-03T05:46:36.995Z,16.88
2018-10-03T05:47:38.065Z,11.25
2018-10-03T05:48:39.587Z,11.25
2018-10-03T05:49:40.012Z,11.25
2018-10-03T05:50:40.806Z,16.88
2018-10-03T05:51:42.153Z,16.88
2018-10-03T05:52:41.971Z,16.88
2018-10-03T05:53:43.624Z,16.88
2018-10-03T05:54:45.368Z,16.88
2018-10-03T05:55:45.374Z,22.5
2018-10-03T05:56:44.888Z,22.5
2018-10-03T05:57:45.955Z,22.5
2018-10-03T05:58:46.472Z,22.5
2018-10-03T05:59:47.266Z,16.88
2018-10-03T06:00:48.062Z,16.88
2018-10-03T06:01:49.408Z,16.88
2018-10-03T06:02:52.340Z,16.88
2018-10-03T06:03:51.681Z,16.88
2018-10-03T06:04:52.752Z,16.88
2018-10-03T06:05:53.267Z,22.5
2018-10-03T06:06:54.348Z,22.5
2018-10-03T06:07:55.697Z,22.5
2018-10-03T06:08:56.763Z,22.5
2018-10-03T06:09:57.556Z,22.5
2018-10-03T06:10:57.791Z,22.5
2018-10-03T06:12:00.065Z,28.13
2018-10-03T06:13:01.675Z,22.5
2018-10-03T06:14:02.636Z,22.5
2018-10-03T06:15:03.984Z,28.13
2018-10-03T06:16:03.780Z,28.13
2018-10-03T06:17:05.402Z,28.13
2018-10-03T06:18:05.192Z,28.13
2018-10-03T06:19:06.820Z,33.75
2018-10-03T06:20:06.611Z,33.75
2018-10-03T06:21:07.403Z,33.75
2018-10-03T06:22:07.915Z,33.75
2018-10-03T06:23:08.154Z,33.75
2018-10-03T06:24:09.447Z,39.38
2018-10-03T06:25:10.792Z,39.38
2018-10-03T06:26:10.308Z,39.38
2018-10-03T06:27:11.099Z,33.75
2018-10-03T06:28:13.889Z,33.75
2018-10-03T06:29:13.042Z,33.75
2018-10-03T06:30:14.671Z,39.38
2018-10-03T06:31:16.018Z,39.38
2018-10-03T06:32:16.528Z,39.38
2018-10-03T06:33:18.251Z,39.38
2018-10-03T06:34:19.053Z,39.38
2018-10-03T06:35:19.124Z,39.38
2018-10-03T06:36:20.750Z,45
2018-10-03T06:37:20.821Z,45
2018-10-03T06:38:22.170Z,45
2018-10-03T06:39:23.449Z,45
2018-10-03T06:40:24.109Z,45
2018-10-03T06:41:24.285Z,45
2018-10-03T06:42:24.379Z,45
2018-10-03T06:43:25.169Z,45
2018-10-03T06:44:26.692Z,45
2018-10-03T06:45:27.511Z,45
2018-10-03T06:46:27.687Z,45
2018-10-03T06:47:28.480Z,50.63
2018-10-03T06:48:28.991Z,50.63
2018-10-03T06:49:29.229Z,50.63
2018-10-03T06:50:30.743Z,50.63
2018-10-03T06:51:30.980Z,50.63
2018-10-03T06:52:32.048Z,56.25
2018-10-03T06:53:33.676Z,56.25
2018-10-03T06:54:34.473Z,50.63
2018-10-03T06:55:34.264Z,50.63
2018-10-03T06:56:34.783Z,50.63
2018-10-03T06:57:36.973Z,50.63
2018-10-03T06:58:37.330Z,50.63
2018-10-03T06:59:37.999Z,50.63
2018-10-03T07:00:38.365Z,50.63
2018-10-03T07:01:39.433Z,50.63
2018-10-03T07:02:40.241Z,50.63
2018-10-03T07:03:40.480Z,50.63
2018-10-03T07:04:41.164Z,50.63
2018-10-03T07:05:42.368Z,50.63
2018-10-03T07:06:42.830Z,50.63
2018-10-03T07:07:44.184Z,50.63
2018-10-03T07:08:45.265Z,50.63
2018-10-03T07:09:46.888Z,56.25
2018-10-03T07:10:47.285Z,67.5
2018-10-03T07:11:47.354Z,61.88
2018-10-03T07:12:48.705Z,67.5
2018-10-03T07:13:49.499Z,67.5
2018-10-03T07:14:50.325Z,67.5
2018-10-03T07:15:50.842Z,67.5
2018-10-03T07:16:52.745Z,67.5
2018-10-03T07:17:52.818Z,67.5
2018-10-03T07:18:53.901Z,73.13
2018-10-03T07:19:54.139Z,78.75
2018-10-03T07:20:54.934Z,73.13
2018-10-03T07:21:55.444Z,78.75
2018-10-03T07:22:56.244Z,78.75
2018-10-03T07:23:57.036Z,78.75
2018-10-03T07:24:58.011Z,78.75
2018-10-03T07:25:58.635Z,84.38
2018-10-03T07:26:59.086Z,90
2018-10-03T07:27:59.601Z,101.25
2018-10-03T07:29:01.227Z,101.25
2018-10-03T07:30:02.022Z,101.25
2018-10-03T07:31:02.821Z,101.25
2018-10-03T07:32:03.896Z,106.88
2018-10-03T07:33:04.804Z,101.25
2018-10-03T07:34:05.151Z,101.25
2018-10-03T07:35:05.418Z,101.25
2018-10-03T07:36:05.938Z,101.25
2018-10-03T07:37:07.003Z,101.25
2018-10-03T07:38:08.074Z,101.25
2018-10-03T07:39:09.702Z,101.25
2018-10-03T07:40:09.497Z,101.25
2018-10-03T07:41:10.291Z,101.25
2018-10-03T07:42:10.809Z,101.25
2018-10-03T07:43:12.325Z,101.25
2018-10-03T07:44:14.063Z,101.25
2018-10-03T07:45:14.296Z,101.25
2018-10-03T07:46:15.370Z,101.25
2018-10-03T07:47:16.456Z,101.25
2018-10-03T07:48:16.534Z,106.88
2018-10-03T07:49:17.603Z,106.88
2018-10-03T07:50:18.959Z,106.88
2018-10-03T07:51:18.760Z,106.88
2018-10-03T07:52:19.555Z,106.88
2018-10-03T07:53:20.349Z,106.88
2018-10-03T07:54:21.711Z,106.88
2018-10-03T07:55:23.239Z,106.88
2018-10-03T07:56:25.729Z,106.88
2018-10-03T07:57:24.251Z,106.88
2018-10-03T07:58:25.882Z,106.88
2018-10-03T07:59:26.683Z,106.88
2018-10-03T08:00:27.476Z,101.25
2018-10-03T08:01:27.994Z,90
2018-10-03T08:02:28.792Z,90
2018-10-03T08:03:29.862Z,90
2018-10-03T08:04:31.214Z,90
2018-10-03T08:05:32.312Z,90
2018-10-03T08:06:32.105Z,95.63
2018-10-03T08:07:32.898Z,101.25
2018-10-03T08:08:33.736Z,112.5
2018-10-03T08:09:35.086Z,118.13
2018-10-03T08:10:35.882Z,112.5
2018-10-03T08:11:36.969Z,112.5
2018-10-03T08:12:38.039Z,118.13
2018-10-03T08:13:38.841Z,118.13
2018-10-03T08:14:39.921Z,129.38
2018-10-03T08:15:40.441Z,129.38
2018-10-03T08:16:41.235Z,129.38
2018-10-03T08:17:41.752Z,129.38
2018-10-03T08:18:43.386Z,135
2018-10-03T08:19:43.899Z,140.63
2018-10-03T08:20:44.705Z,135
2018-10-03T08:21:45.778Z,140.63
2018-10-03T08:22:46.580Z,151.88
2018-10-03T08:23:48.205Z,151.88
2018-10-03T08:24:49.836Z,135
2018-10-03T08:25:50.080Z,112.5
2018-10-03T08:26:50.871Z,101.25
2018-10-03T08:27:51.666Z,95.63
2018-10-03T08:28:52.734Z,90
2018-10-03T08:29:53.530Z,90
2018-10-03T08:30:54.042Z,90
2018-10-03T08:31:54.560Z,95.63
2018-10-03T08:32:56.921Z,90
2018-10-03T08:33:56.588Z,90
2018-10-03T08:34:56.659Z,90
2018-10-03T08:35:56.623Z,95.63
2018-10-03T08:36:58.255Z,95.63
2018-10-03T08:37:58.329Z,101.25
2018-10-03T08:38:59.402Z,101.25
2018-10-03T08:40:01.314Z,101.25
2018-10-03T08:41:02.224Z,101.25
2018-10-03T08:42:02.297Z,95.63
2018-10-03T08:43:02.090Z,90
2018-10-03T08:44:03.882Z,90
2018-10-03T08:45:04.679Z,84.38
2018-10-03T08:46:05.738Z,84.38
2018-10-03T08:47:06.808Z,84.38
2018-10-03T08:48:07.159Z,84.38
2018-10-03T08:49:07.508Z,90
2018-10-03T08:50:07.858Z,90
2018-10-03T08:51:09.486Z,84.38
2018-10-03T08:52:09.833Z,78.75
2018-10-03T08:53:10.186Z,78.75
2018-10-03T08:54:10.262Z,73.13
2018-10-03T08:55:12.175Z,73.13
2018-10-03T08:56:13.009Z,78.75
2018-10-03T08:57:13.801Z,78.75
2018-10-03T08:58:16.431Z,78.75
2018-10-03T08:59:16.634Z,73.13
2018-10-03T09:00:16.423Z,67.5
2018-10-03T09:01:17.770Z,73.13
2018-10-03T09:02:18.842Z,84.38
2018-10-03T09:03:18.916Z,90
2018-10-03T09:04:19.986Z,95.63
2018-10-03T09:05:20.776Z,101.25
2018-10-03T09:06:21.600Z,101.25
2018-10-03T09:07:22.675Z,106.88
2018-10-03T09:08:23.797Z,112.5
2018-10-03T09:09:24.599Z,112.5
2018-10-03T09:10:25.945Z,118.13
2018-10-03T09:11:27.765Z,118.13
2018-10-03T09:12:27.839Z,118.13
2018-10-03T09:13:28.358Z,123.75
2018-10-03T09:14:29.437Z,123.75
2018-10-03T09:15:29.954Z,135
2018-10-03T09:16:30.782Z,151.88
2018-10-03T09:17:31.575Z,163.13
2018-10-03T09:18:33.202Z,168.75
2018-10-03T09:19:33.277Z,163.13
2018-10-03T09:20:34.912Z,168.75
2018-10-03T09:21:36.795Z,174.38
2018-10-03T09:22:36.281Z,157.5
2018-10-03T09:23:37.354Z,151.88
2018-10-03T09:24:38.982Z,146.25
2018-10-03T09:25:39.340Z,135
2018-10-03T09:26:39.591Z,129.38
2018-10-03T09:27:39.950Z,129.38
2018-10-03T09:28:40.860Z,135
2018-10-03T09:29:41.208Z,140.63
2018-10-03T09:30:41.560Z,151.88
2018-10-03T09:31:42.355Z,157.5
2018-10-03T09:32:42.597Z,168.75
2018-10-03T09:33:44.227Z,168.75
2018-10-03T09:34:44.026Z,185.63
2018-10-03T09:35:45.102Z,208.13
2018-10-03T09:36:46.070Z,225
2018-10-03T09:37:46.867Z,247.5
2018-10-03T09:38:47.108Z,275.63
2018-10-03T09:39:48.187Z,303.75
2018-10-03T09:40:49.258Z,298.13
2018-10-03T09:41:49.777Z,286.88
2018-10-03T09:42:50.571Z,275.63
2018-10-03T09:43:52.972Z,247.5
2018-10-03T09:44:53.105Z,219.38
2018-10-03T09:45:53.623Z,202.5
2018-10-03T09:46:55.425Z,208.13
2018-10-03T09:47:56.779Z,225
2018-10-03T09:48:57.018Z,230.63
2018-10-03T09:49:59.091Z,247.5
2018-10-03T09:50:59.608Z,281.25
2018-10-03T09:52:00.401Z,303.75
2018-10-03T09:53:00.922Z,337.5
2018-10-03T09:54:01.997Z,376.88
2018-10-03T09:55:02.518Z,399.38
2018-10-03T09:56:03.884Z,438.75
2018-10-03T09:57:03.855Z,427.5
2018-10-03T09:58:05.484Z,438.75
2018-10-03T09:59:05.561Z,427.5
2018-10-03T10:00:06.080Z,382.5
2018-10-03T10:01:07.318Z,405
2018-10-03T10:02:08.956Z,478.13
2018-10-03T10:03:09.037Z,495
2018-10-03T10:04:09.840Z,450
2018-10-03T10:05:10.915Z,320.63
2018-10-03T10:06:11.715Z,309.38
2018-10-03T10:07:12.245Z,286.88
2018-10-03T10:08:12.321Z,270
2018-10-03T10:09:13.124Z,264.38
2018-10-03T10:10:16.153Z,258.75
2018-10-03T10:11:17.332Z,253.13
2018-10-03T10:12:16.496Z,241.88
2018-10-03T10:13:18.958Z,241.88
2018-10-03T10:14:18.760Z,230.63
2018-10-03T10:15:19.562Z,219.38
2018-10-03T10:16:20.933Z,208.13
2018-10-03T10:17:21.011Z,213.75
2018-10-03T10:18:21.810Z,230.63
2018-10-03T10:19:22.337Z,230.63
2018-10-03T10:20:23.685Z,219.38
2018-10-03T10:21:25.035Z,208.13
2018-10-03T10:22:25.386Z,202.5
2018-10-03T10:23:26.460Z,202.5
2018-10-03T10:24:25.987Z,196.88
2018-10-03T10:25:27.506Z,191.25
2018-10-03T10:26:29.307Z,202.5
2018-10-03T10:27:30.386Z,208.13
2018-10-03T10:28:31.460Z,202.5
2018-10-03T10:29:31.814Z,196.88
2018-10-03T10:30:31.893Z,196.88
2018-10-03T10:31:32.410Z,196.88
2018-10-03T10:32:35.471Z,185.63
2018-10-03T10:33:34.561Z,174.38
2018-10-03T10:34:35.079Z,163.13
2018-10-03T10:35:36.435Z,157.5
2018-10-03T10:36:36.529Z,151.88
2018-10-03T10:37:38.522Z,151.88
2018-10-03T10:38:38.883Z,151.88
2018-10-03T10:39:39.401Z,168.75
2018-10-03T10:40:43.644Z,180
2018-10-03T10:41:41.262Z,196.88
2018-10-03T10:42:42.056Z,202.5
2018-10-03T10:43:43.301Z,196.88
2018-10-03T10:44:45.250Z,196.88
2018-10-03T10:45:44.773Z,202.5
2018-10-03T10:46:46.820Z,191.25
2018-10-03T10:47:47.170Z,185.63
2018-10-03T10:48:46.967Z,180
2018-10-03T10:49:47.483Z,191.25
2018-10-03T10:50:48.832Z,191.25
2018-10-03T10:51:49.867Z,180
2018-10-03T10:52:50.305Z,163.13
2018-10-03T10:53:51.379Z,157.5
2018-10-03T10:54:52.172Z,163.13
2018-10-03T10:55:53.531Z,146.25
2018-10-03T10:56:53.334Z,135
2018-10-03T10:57:54.856Z,123.75
2018-10-03T10:58:56.211Z,135
2018-10-03T10:59:57.287Z,140.63
2018-10-03T11:00:58.081Z,146.25
2018-10-03T11:01:58.601Z,151.88
2018-10-03T11:02:59.118Z,157.5
2018-10-03T11:04:00.194Z,146.25
2018-10-03T11:05:00.992Z,135
2018-10-03T11:06:01.528Z,135
2018-10-03T11:07:03.305Z,129.38
2018-10-03T11:08:03.994Z,129.38
2018-10-03T11:09:04.515Z,123.75
2018-10-03T11:10:05.590Z,118.13
2018-10-03T11:11:06.663Z,112.5
2018-10-03T11:12:07.732Z,106.88
2018-10-03T11:13:08.251Z,101.25
2018-10-03T11:14:09.881Z,95.63
2018-10-03T11:15:09.671Z,101.25
2018-10-03T11:16:11.468Z,106.88
2018-10-03T11:17:11.711Z,106.88
2018-10-03T11:18:12.950Z,101.25
2018-10-03T11:19:13.464Z,106.88
2018-10-03T11:20:14.813Z,118.13
2018-10-03T11:21:14.890Z,118.13
2018-10-03T11:22:14.974Z,123.75
2018-10-03T11:23:15.219Z,140.63
2018-10-03T11:24:18.839Z,163.13
2018-10-03T11:25:17.804Z,163.13
2018-10-03T11:26:18.606Z,163.13
2018-10-03T11:27:19.682Z,174.38
2018-10-03T11:28:20.948Z,185.63
2018-10-03T11:29:22.023Z,191.25
2018-10-03T11:30:22.820Z,185.63
2018-10-03T11:31:23.336Z,180
2018-10-03T11:32:24.139Z,168.75
2018-10-03T11:33:24.939Z,168.75
2018-10-03T11:34:26.012Z,157.5
2018-10-03T11:35:26.807Z,157.5
2018-10-03T11:36:28.439Z,157.5
2018-10-03T11:37:28.791Z,157.5
2018-10-03T11:38:29.321Z,157.5
2018-10-03T11:39:30.677Z,157.5
2018-10-03T11:40:31.747Z,151.88
2018-10-03T11:41:31.823Z,151.88
2018-10-03T11:42:32.399Z,157.5
2018-10-03T11:43:34.034Z,157.5
2018-10-03T11:44:34.664Z,151.88
2018-10-03T11:45:34.907Z,151.88
2018-10-03T11:46:36.980Z,157.5
2018-10-03T11:47:37.335Z,163.13
2018-10-03T11:48:37.602Z,157.5
2018-10-03T11:49:39.232Z,157.5
2018-10-03T11:50:40.694Z,168.75
2018-10-03T11:51:39.285Z,196.88
2018-10-03T11:52:41.363Z,208.13
2018-10-03T11:53:41.159Z,225
2018-10-03T11:54:42.510Z,247.5
2018-10-03T11:55:42.859Z,270
2018-10-03T11:56:43.378Z,286.88
2018-10-03T11:57:43.624Z,292.5
2018-10-03T11:58:44.735Z,270
2018-10-03T11:59:44.811Z,253.13
2018-10-03T12:00:46.178Z,258.75
2018-10-03T12:01:46.252Z,247.5
2018-10-03T12:02:48.066Z,236.25
2018-10-03T12:03:48.780Z,213.75
2018-10-03T12:04:48.578Z,241.88
2018-10-03T12:05:49.096Z,275.63
2018-10-03T12:06:49.897Z,275.63
2018-10-03T12:07:51.525Z,219.38
2018-10-03T12:08:51.799Z,196.88
2018-10-03T12:09:52.872Z,196.88
2018-10-03T12:10:53.392Z,208.13
2018-10-03T12:11:54.189Z,213.75
2018-10-03T12:12:55.989Z,225
2018-10-03T12:13:56.500Z,225
2018-10-03T12:14:57.304Z,213.75
2018-10-03T12:15:59.211Z,225
2018-10-03T12:17:00.119Z,241.88
2018-10-03T12:18:00.198Z,253.13
2018-10-03T12:19:00.753Z,236.25
2018-10-03T12:20:01.836Z,225
2018-10-03T12:21:02.630Z,225
2018-10-03T12:22:03.152Z,236.25
2018-10-03T12:23:05.336Z,253.13
2018-10-03T12:24:05.687Z,258.75
2018-10-03T12:25:08.551Z,270
2018-10-03T12:26:07.920Z,286.88
2018-10-03T12:27:08.716Z,320.63
2018-10-03T12:28:09.792Z,348.75
2018-10-03T12:29:10.039Z,354.38
2018-10-03T12:30:11.118Z,337.5
2018-10-03T12:31:11.468Z,326.25
2018-10-03T12:32:12.829Z,281.25
2018-10-03T12:33:15.024Z,258.75
2018-10-03T12:34:14.115Z,241.88
2018-10-03T12:35:14.914Z,241.88
2018-10-03T12:36:15.988Z,241.88
2018-10-03T12:37:17.340Z,236.25
2018-10-03T12:38:18.419Z,230.63
2018-10-03T12:39:19.670Z,219.38
2018-10-03T12:40:20.466Z,219.38
2018-10-03T12:41:21.265Z,225
2018-10-03T12:42:22.619Z,213.75
2018-10-03T12:43:23.697Z,180
2018-10-03T12:44:24.216Z,163.13
2018-10-03T12:45:25.019Z,185.63
2018-10-03T12:46:26.375Z,191.25
2018-10-03T12:47:28.004Z,185.63
2018-10-03T12:48:27.524Z,163.13
2018-10-03T12:49:28.396Z,174.38
2018-10-03T12:50:30.475Z,163.13
2018-10-03T12:51:31.280Z,157.5
2018-10-03T12:52:32.628Z,151.88
2018-10-03T12:53:33.706Z,140.63
2018-10-03T12:54:36.249Z,129.38
2018-10-03T12:55:36.610Z,129.38
2018-10-03T12:56:37.127Z,123.75
2018-10-03T12:57:38.921Z,123.75
2018-10-03T12:58:39.720Z,112.5
2018-10-03T12:59:41.272Z,101.25
2018-10-03T13:00:42.069Z,101.25
2018-10-03T13:01:43.702Z,101.25
2018-10-03T13:02:43.774Z,101.25
2018-10-03T13:03:44.125Z,106.88
2018-10-03T13:04:45.209Z,106.88
2018-10-03T13:05:45.283Z,106.88
2018-10-03T13:06:45.803Z,101.25
2018-10-03T13:07:46.319Z,95.63
2018-10-03T13:08:47.667Z,90
2018-10-03T13:09:48.628Z,90
2018-10-03T13:10:50.255Z,90
2018-10-03T13:11:49.769Z,95.63
2018-10-03T13:12:50.286Z,90
2018-10-03T13:13:51.939Z,95.63
2018-10-03T13:14:52.028Z,95.63
2018-10-03T13:15:53.656Z,95.63
2018-10-03T13:16:53.726Z,90
2018-10-03T13:17:55.077Z,90
2018-10-03T13:18:56.146Z,90
2018-10-03T13:19:56.388Z,95.63
2018-10-03T13:20:56.627Z,101.25
2018-10-03T13:21:57.422Z,106.88
2018-10-03T13:22:58.495Z,112.5
2018-10-03T13:23:59.571Z,112.5
2018-10-03T13:25:01.203Z,118.13
2018-10-03T13:26:00.732Z,112.5
2018-10-03T13:27:03.647Z,106.88
2018-10-03T13:28:03.720Z,101.25
2018-10-03T13:29:04.519Z,101.25
2018-10-03T13:30:06.042Z,101.25
2018-10-03T13:31:07.112Z,101.25
2018-10-03T13:32:07.354Z,112.5
2018-10-03T13:33:08.880Z,123.75
2018-10-03T13:34:09.390Z,135
2018-10-03T13:35:11.462Z,146.25
2018-10-03T13:36:11.261Z,146.25
2018-10-03T13:37:12.501Z,146.25
2018-10-03T13:38:14.129Z,146.25
2018-10-03T13:39:14.758Z,146.25
2018-10-03T13:40:15.288Z,146.25
2018-10-03T13:41:17.099Z,135
2018-10-03T13:42:16.582Z,123.75
2018-10-03T13:43:17.940Z,129.38
2018-10-03T13:44:19.293Z,140.63
2018-10-03T13:45:19.091Z,146.25